Time;durP1;ratioP1;P1;durP2;ratioP2;P2;SDS_P1;SDS_P2;PMS_P1;PMS_P2;Temp;Humidity;BMP_temperature;BMP_pressure;BME280_temperature;BME280_humidity;BME280_pressure;Samples;Min_cycle;Max_cycle;Signal;HPM_P1;HPM_P2
2022/06/07 00:02:30;;;;;;;4.75;1.50;;;;;13.70;94138.00;;;;7393620;19;20121;-76
2022/06/07 00:04:58;;;;;;;9.07;2.03;;;;;13.60;94130.00;;;;7393935;19;20138;-75
2022/06/07 00:07:32;;;;;;;3.17;1.40;;;;;13.50;94125.00;;;;7392874;19;20212;-76
2022/06/07 00:09:59;;;;;;;2.20;1.42;;;;;13.50;94128.00;;;;7392381;19;20499;-76
2022/06/07 00:12:27;;;;;;;1.92;1.70;;;;;13.50;94129.00;;;;7391451;19;20128;-77
2022/06/07 00:15:01;;;;;;;2.80;1.30;;;;;13.50;94134.00;;;;7391418;19;20208;-75
2022/06/07 00:17:28;;;;;;;4.25;1.48;;;;;13.50;94134.00;;;;7392818;19;20640;-76
2022/06/07 00:19:56;;;;;;;2.13;1.42;;;;;13.50;94139.00;;;;7392847;19;20206;-75
2022/06/07 00:22:30;;;;;;;1.88;1.30;;;;;13.40;94143.00;;;;7389668;19;20148;-77
2022/06/07 00:24:57;;;;;;;3.10;1.50;;;;;13.50;94148.00;;;;7391955;19;20113;-75
2022/06/07 00:27:28;;;;;;;1.90;1.52;;;;;13.30;94147.00;;;;7392658;19;20141;-76
2022/06/07 00:30:03;;;;;;;4.57;1.30;;;;;13.30;94146.00;;;;7390468;19;20124;-75
2022/06/07 00:32:31;;;;;;;1.60;1.38;;;;;13.20;94152.00;;;;7391220;19;20141;-75
2022/06/07 00:34:59;;;;;;;5.88;1.60;;;;;13.10;94146.00;;;;7394114;19;20138;-76
2022/06/07 00:37:33;;;;;;;4.15;1.38;;;;;13.10;94147.00;;;;7392571;19;20121;-77
2022/06/07 00:40:00;;;;;;;2.45;1.33;;;;;13.00;94149.00;;;;7391509;19;20137;-77
2022/06/07 00:42:28;;;;;;;4.93;1.40;;;;;13.10;94142.00;;;;7392892;19;20142;-77
2022/06/07 00:45:20;;;;;;;2.45;1.50;;;;;13.10;94140.00;;;;7391604;19;20137;-76
2022/06/07 00:47:48;;;;;;;1.75;1.30;;;;;13.10;94135.00;;;;7390973;19;20693;-77
2022/06/07 00:50:40;;;;;;;2.75;1.30;;;;;13.10;94140.00;;;;7389817;19;20131;-76
2022/06/07 00:53:35;;;;;;;1.50;1.08;;;;;12.90;94127.00;;;;7391055;19;20510;-75
2022/06/07 00:56:11;;;;;;;2.53;1.27;;;;;12.90;94124.00;;;;7390993;19;20140;-77
2022/06/07 00:58:39;;;;;;;3.38;1.50;;;;;12.80;94125.00;;;;7391315;19;20595;-77
2022/06/07 01:01:09;;;;;;;3.80;1.10;;;;;12.80;94114.00;;;;7393311;19;20133;-77
2022/06/07 01:03:44;;;;;;;2.35;1.20;;;;;12.80;94124.00;;;;7391806;19;20143;-77
2022/06/07 01:11:51;;;;;;;3.83;1.10;;;;;12.70;94125.00;;;;7394180;19;20619;-76
2022/06/07 01:14:25;;;;;;;2.88;1.40;;;;;12.60;94122.00;;;;7392521;19;20140;-76
2022/06/07 01:16:52;;;;;;;3.65;1.05;;;;;12.50;94120.00;;;;7391531;19;20597;-75
2022/06/07 01:19:20;;;;;;;3.22;1.10;;;;;12.60;94117.00;;;;7388974;19;20155;-75
2022/06/07 01:21:54;;;;;;;1.10;1.00;;;;;12.50;94120.00;;;;7387543;19;20161;-76
2022/06/07 01:24:21;;;;;;;1.75;1.10;;;;;12.40;94122.00;;;;7391254;19;20125;-75
2022/06/07 01:26:50;;;;;;;1.65;1.15;;;;;12.40;94115.00;;;;7390883;19;20128;-77
2022/06/07 01:29:25;;;;;;;4.80;1.50;;;;;12.30;94117.00;;;;7390410;19;20132;-76
2022/06/07 01:31:55;;;;;;;4.18;1.45;;;;;12.30;94110.00;;;;7390401;19;20946;-76
2022/06/07 01:34:24;;;;;;;3.47;1.50;;;;;12.30;94123.00;;;;7390109;19;20117;-76
2022/06/07 01:36:59;;;;;;;2.58;1.13;;;;;12.20;94122.00;;;;7390225;19;20128;-75
2022/06/07 01:42:21;;;;;;;3.42;0.98;;;;;12.30;94115.00;;;;7392554;19;20589;-77
2022/06/07 01:44:56;;;;;;;1.63;1.02;;;;;12.30;94104.00;;;;7388050;19;20156;-77
2022/06/07 01:47:38;;;;;;;1.45;1.13;;;;;12.20;94106.00;;;;7390661;19;20614;-75
2022/06/07 01:50:08;;;;;;;1.08;0.80;;;;;12.20;94104.00;;;;7389576;19;20144;-75
2022/06/07 01:52:42;;;;;;;4.20;1.02;;;;;12.30;94098.00;;;;7391201;19;20493;-75
2022/06/07 01:55:10;;;;;;;0.77;0.77;;;;;12.20;94097.00;;;;7390893;19;20141;-75
2022/06/07 01:57:38;;;;;;;2.00;0.85;;;;;12.30;94092.00;;;;7389658;19;20215;-76
2022/06/07 02:00:12;;;;;;;1.52;0.90;;;;;12.30;94085.00;;;;7389746;19;20136;-77
2022/06/07 02:02:41;;;;;;;2.47;1.27;;;;;12.10;94082.00;;;;7391464;19;20170;-77
2022/06/07 02:05:09;;;;;;;1.27;0.90;;;;;12.20;94079.00;;;;7389982;19;20470;-76
2022/06/07 02:07:43;;;;;;;1.10;1.00;;;;;12.10;94082.00;;;;7390233;19;20144;-76
2022/06/07 02:10:10;;;;;;;1.88;1.20;;;;;12.10;94083.00;;;;7389882;19;20477;-75
2022/06/07 02:12:38;;;;;;;3.97;1.50;;;;;12.10;94081.00;;;;7390440;19;20477;-77
2022/06/07 02:15:12;;;;;;;1.55;1.20;;;;;12.10;94082.00;;;;7389727;19;20503;-76
2022/06/07 02:17:39;;;;;;;1.77;1.10;;;;;12.10;94079.00;;;;7390438;19;20462;-76
2022/06/07 02:20:07;;;;;;;2.05;1.20;;;;;12.20;94073.00;;;;7392442;19;20129;-77
2022/06/07 02:22:42;;;;;;;1.65;1.10;;;;;12.20;94071.00;;;;7394382;19;20455;-77
2022/06/07 02:25:11;;;;;;;2.13;1.00;;;;;12.10;94069.00;;;;7396457;19;20181;-77
2022/06/07 02:27:39;;;;;;;2.17;0.95;;;;;12.20;94074.00;;;;7399335;19;20625;-78
2022/06/07 02:30:14;;;;;;;1.75;1.13;;;;;12.20;94060.00;;;;7395796;19;20166;-78
2022/06/07 02:32:41;;;;;;;1.30;1.00;;;;;12.10;94060.00;;;;7398386;19;20618;-77
2022/06/07 02:35:10;;;;;;;3.70;1.02;;;;;12.10;94055.00;;;;7399019;19;20128;-76
2022/06/07 02:37:44;;;;;;;2.60;0.95;;;;;12.10;94053.00;;;;7397624;19;20132;-76
2022/06/07 02:40:11;;;;;;;3.40;1.10;;;;;12.20;94047.00;;;;7397251;19;20141;-76
2022/06/07 02:42:39;;;;;;;1.80;1.00;;;;;12.10;94048.00;;;;7396494;19;20605;-77
2022/06/07 02:45:19;;;;;;;1.00;0.98;;;;;12.20;94050.00;;;;7397147;19;20580;-76
2022/06/07 02:47:47;;;;;;;1.30;1.20;;;;;12.20;94054.00;;;;7396914;19;20260;-76
2022/06/07 02:50:22;;;;;;;1.20;0.90;;;;;12.20;94050.00;;;;7394896;19;20200;-77
2022/06/07 02:52:50;;;;;;;1.08;0.93;;;;;12.20;94044.00;;;;7395578;19;20159;-77
2022/06/07 02:55:18;;;;;;;4.07;1.00;;;;;12.20;94038.00;;;;7396946;19;20145;-77
2022/06/07 02:57:52;;;;;;;0.90;0.90;;;;;12.20;94042.00;;;;7396148;19;20608;-76
2022/06/07 03:00:20;;;;;;;1.25;1.08;;;;;12.20;94047.00;;;;7395374;19;20132;-76
2022/06/07 03:02:48;;;;;;;4.57;1.10;;;;;12.20;94039.00;;;;7396595;19;20611;-78
2022/06/07 03:05:23;;;;;;;0.90;0.90;;;;;12.10;94039.00;;;;7396363;19;20140;-77
2022/06/07 03:07:51;;;;;;;2.15;1.10;;;;;12.20;94048.00;;;;7395549;19;20141;-77
2022/06/07 03:10:19;;;;;;;2.00;1.05;;;;;12.10;94046.00;;;;7394385;19;20137;-77
2022/06/07 03:12:53;;;;;;;1.75;1.05;;;;;12.20;94043.00;;;;7396279;19;20518;-78
2022/06/07 03:15:21;;;;;;;1.10;1.00;;;;;12.30;94044.00;;;;7396784;19;20125;-77
2022/06/07 03:17:48;;;;;;;1.20;1.00;;;;;12.30;94040.00;;;;7394932;19;20133;-77
2022/06/07 03:20:23;;;;;;;0.98;0.75;;;;;12.40;94035.00;;;;7395672;19;20141;-77
2022/06/07 03:22:50;;;;;;;1.55;0.98;;;;;12.20;94025.00;;;;7395525;19;20129;-77
2022/06/07 03:25:18;;;;;;;2.90;1.30;;;;;12.20;94038.00;;;;7394522;19;20140;-77
2022/06/07 03:27:52;;;;;;;1.33;0.95;;;;;12.30;94033.00;;;;7395615;19;20167;-76
2022/06/07 03:30:20;;;;;;;0.82;0.82;;;;;12.30;94034.00;;;;7394539;19;20659;-77
2022/06/07 03:32:47;;;;;;;3.63;0.82;;;;;12.30;94028.00;;;;7392976;19;20602;-77
2022/06/07 03:35:22;;;;;;;3.40;1.08;;;;;12.40;94023.00;;;;7395728;19;20129;-78
2022/06/07 03:37:50;;;;;;;1.58;1.00;;;;;12.50;94014.00;;;;7395078;19;20133;-76
2022/06/07 03:43:25;;;;;;;2.67;0.90;;;;;12.50;94034.00;;;;7394648;19;20149;-77
2022/06/07 03:46:08;;;;;;;1.88;1.00;;;;;12.60;94037.00;;;;7396026;19;20133;-77
2022/06/07 03:48:43;;;;;;;3.75;1.10;;;;;12.60;94047.00;;;;7393888;19;20128;-76
2022/06/07 03:51:13;;;;;;;1.30;1.10;;;;;12.50;94051.00;;;;7392855;19;20146;-77
2022/06/07 03:53:41;;;;;;;1.10;1.00;;;;;12.60;94049.00;;;;7394438;19;20632;-78
2022/06/07 03:56:17;;;;;;;1.13;0.98;;;;;12.60;94053.00;;;;7393674;19;20601;-78
2022/06/07 03:58:45;;;;;;;2.25;1.00;;;;;12.50;94048.00;;;;7393229;19;20456;-77
2022/06/07 04:01:15;;;;;;;1.70;1.00;;;;;12.50;94044.00;;;;7390603;19;20137;-80
2022/06/07 04:03:52;;;;;;;1.15;1.00;;;;;12.60;94051.00;;;;7391453;19;20132;-79
2022/06/07 04:06:29;;;;;;;1.60;1.10;;;;;12.60;94040.00;;;;7392906;19;20133;-79
2022/06/07 04:09:04;;;;;;;1.55;1.00;;;;;12.60;94054.00;;;;7393109;19;20656;-77
2022/06/07 04:11:31;;;;;;;2.67;1.33;;;;;12.70;94053.00;;;;7392501;19;20143;-79
2022/06/07 04:14:00;;;;;;;2.15;1.10;;;;;12.70;94055.00;;;;7392724;19;20648;-78
2022/06/07 04:16:35;;;;;;;1.02;0.93;;;;;12.70;94049.00;;;;7394269;19;20139;-79
2022/06/07 04:19:03;;;;;;;1.20;1.08;;;;;12.80;94043.00;;;;7393324;19;20603;-79
2022/06/07 04:21:30;;;;;;;1.38;1.00;;;;;12.80;94053.00;;;;7395912;19;20199;-79
2022/06/07 04:24:05;;;;;;;1.73;1.10;;;;;12.80;94040.00;;;;7392455;19;20165;-78
2022/06/07 04:26:33;;;;;;;2.55;1.00;;;;;12.80;94050.00;;;;7393596;19;20121;-79
2022/06/07 04:29:00;;;;;;;4.53;1.20;;;;;12.80;94052.00;;;;7394046;19;20129;-78
2022/06/07 04:31:35;;;;;;;3.25;1.17;;;;;12.80;94055.00;;;;7391220;19;20592;-77
2022/06/07 04:34:02;;;;;;;1.08;0.98;;;;;12.90;94064.00;;;;7392157;19;20109;-79
2022/06/07 04:36:30;;;;;;;1.00;0.90;;;;;12.80;94058.00;;;;7394486;19;20426;-78
2022/06/07 04:39:26;;;;;;;1.80;1.33;;;;;12.80;94055.00;;;;7391186;19;20137;-77
2022/06/07 04:42:01;;;;;;;3.72;1.00;;;;;12.90;94059.00;;;;7392366;19;20621;-77
2022/06/07 04:44:49;;;;;;;1.92;1.10;;;;;13.00;94064.00;;;;7387163;19;20190;-79
2022/06/07 04:47:24;;;;;;;4.03;1.40;;;;;12.90;94067.00;;;;7391539;19;20140;-78
2022/06/07 04:49:58;;;;;;;1.60;1.05;;;;;13.00;94067.00;;;;7391792;19;20140;-78
2022/06/07 04:52:25;;;;;;;1.95;1.02;;;;;13.00;94075.00;;;;7392197;19;20551;-81
2022/06/07 04:54:52;;;;;;;0.90;0.90;;;;;13.10;94076.00;;;;7391689;19;20134;-78
2022/06/07 04:57:29;;;;;;;1.45;1.10;;;;;13.20;94071.00;;;;7391109;19;20199;-79
2022/06/07 04:59:57;;;;;;;4.82;1.33;;;;;13.10;94077.00;;;;7391445;19;20133;-77
2022/06/07 05:02:24;;;;;;;2.40;1.40;;;;;13.10;94071.00;;;;7391981;19;20141;-78
2022/06/07 05:04:59;;;;;;;2.75;0.90;;;;;13.20;94070.00;;;;7391526;19;20128;-78
2022/06/07 05:07:29;;;;;;;2.28;1.00;;;;;13.30;94079.00;;;;7390799;19;20144;-79
2022/06/07 05:09:58;;;;;;;1.35;1.20;;;;;13.10;94081.00;;;;7391632;19;20149;-79
2022/06/07 05:12:32;;;;;;;1.60;1.00;;;;;13.00;94084.00;;;;7392251;19;20602;-79
2022/06/07 05:15:00;;;;;;;1.20;1.10;;;;;13.10;94089.00;;;;7390894;19;20212;-79
2022/06/07 05:17:28;;;;;;;2.33;1.20;;;;;13.00;94089.00;;;;7386408;19;20155;-79
2022/06/07 05:20:02;;;;;;;1.10;1.00;;;;;12.90;94094.00;;;;7394919;19;20152;-79
2022/06/07 05:22:30;;;;;;;2.58;1.15;;;;;13.00;94095.00;;;;7393731;19;20169;-81
2022/06/07 05:24:57;;;;;;;1.85;1.35;;;;;13.00;94094.00;;;;7394484;19;20171;-79
2022/06/07 05:27:44;;;;;;;2.72;1.20;;;;;13.10;94098.00;;;;7391608;19;20499;-78
2022/06/07 05:30:13;;;;;;;2.47;0.98;;;;;13.20;94090.00;;;;7392775;19;20617;-79
2022/06/07 05:32:48;;;;;;;2.33;1.00;;;;;13.30;94088.00;;;;7394655;19;20129;-79
2022/06/07 05:35:15;;;;;;;2.20;1.20;;;;;13.40;94091.00;;;;7393827;19;20140;-78
2022/06/07 05:37:43;;;;;;;2.55;1.30;;;;;13.60;94088.00;;;;7391810;19;20165;-77
2022/06/07 05:40:17;;;;;;;1.38;1.20;;;;;14.00;94087.00;;;;7393048;19;20152;-80
2022/06/07 05:42:44;;;;;;;2.60;1.08;;;;;14.30;94094.00;;;;7390281;19;20125;-78
2022/06/07 05:45:12;;;;;;;2.88;1.20;;;;;14.50;94093.00;;;;7393013;19;20168;-78
2022/06/07 05:47:52;;;;;;;3.00;0.98;;;;;14.90;94096.00;;;;7392077;19;20151;-79
2022/06/07 05:50:25;;;;;;;2.10;1.30;;;;;15.10;94095.00;;;;7393296;19;20503;-77
2022/06/07 05:52:59;;;;;;;1.63;1.20;;;;;15.30;94099.00;;;;7393835;19;20154;-79
2022/06/07 05:55:26;;;;;;;1.20;1.10;;;;;15.20;94100.00;;;;7393790;19;20507;-81
2022/06/07 05:57:54;;;;;;;2.17;1.20;;;;;15.20;94105.00;;;;7398951;19;20183;-79
2022/06/07 06:00:30;;;;;;;5.50;1.20;;;;;14.90;94100.00;;;;7401688;19;20619;-78
2022/06/07 06:02:59;;;;;;;3.22;1.17;;;;;14.90;94103.00;;;;7401121;19;20157;-82
2022/06/07 06:05:26;;;;;;;1.83;1.27;;;;;14.90;94099.00;;;;7399258;19;20509;-79
2022/06/07 06:11:01;;;;;;;1.77;1.30;;;;;15.30;94100.00;;;;7400585;19;20157;-79
2022/06/07 06:13:36;;;;;;;1.67;1.30;;;;;16.10;94091.00;;;;7398790;19;20493;-79
2022/06/07 06:16:11;;;;;;;1.38;1.10;;;;;16.70;94094.00;;;;7398969;19;20507;-80
2022/06/07 06:19:03;;;;;;;3.67;0.98;;;;;16.50;94111.00;;;;7399825;19;20157;-79
2022/06/07 06:21:40;;;;;;;1.42;1.10;;;;;16.80;94105.00;;;;7396433;19;20500;-79
2022/06/07 06:24:15;;;;;;;2.40;1.10;;;;;16.90;94095.00;;;;7398983;19;20144;-79
2022/06/07 06:26:44;;;;;;;3.47;1.25;;;;;16.60;94096.00;;;;7400996;19;20620;-78
2022/06/07 06:29:12;;;;;;;1.90;0.85;;;;;16.90;94097.00;;;;7400460;19;20165;-80
2022/06/07 06:31:48;;;;;;;3.05;1.23;;;;;16.80;94099.00;;;;7395779;19;20153;-78
2022/06/07 06:34:15;;;;;;;1.33;1.10;;;;;16.80;94090.00;;;;7398386;19;20159;-77
2022/06/07 06:36:44;;;;;;;3.05;1.10;;;;;17.50;94093.00;;;;7399096;19;20170;-79
2022/06/07 06:39:19;;;;;;;1.73;1.15;;;;;17.80;94103.00;;;;7396937;19;20137;-80
2022/06/07 06:41:47;;;;;;;2.75;1.23;;;;;17.70;94102.00;;;;7398808;19;20146;-78
2022/06/07 06:44:15;;;;;;;4.47;1.10;;;;;17.20;94115.00;;;;7395839;19;20176;-77
2022/06/07 06:46:49;;;;;;;2.80;1.20;;;;;17.40;94097.00;;;;7399468;19;20616;-78
2022/06/07 06:49:18;;;;;;;3.38;1.30;;;;;18.00;94094.00;;;;7398575;19;20633;-79
2022/06/07 06:51:47;;;;;;;2.47;1.30;;;;;17.70;94099.00;;;;7400565;19;20138;-81
2022/06/07 06:54:22;;;;;;;1.67;1.17;;;;;17.40;94096.00;;;;7397134;19;20144;-80
2022/06/07 06:56:50;;;;;;;2.50;1.05;;;;;17.10;94099.00;;;;7398463;19;20186;-77
2022/06/07 06:59:20;;;;;;;1.98;1.00;;;;;16.70;94092.00;;;;7401412;19;20612;-79
2022/06/07 07:01:55;;;;;;;3.10;1.10;;;;;16.40;94096.00;;;;7397719;19;20191;-80
2022/06/07 07:04:23;;;;;;;4.57;1.17;;;;;16.70;94101.00;;;;7397864;19;20596;-79
2022/06/07 07:06:51;;;;;;;2.03;1.23;;;;;16.80;94109.00;;;;7395742;19;20640;-76
2022/06/07 07:09:26;;;;;;;2.80;1.20;;;;;16.50;94103.00;;;;7394936;19;20129;-77
2022/06/07 07:11:59;;;;;;;2.40;1.15;;;;;16.40;94110.00;;;;7396381;19;20602;-77
2022/06/07 07:14:33;;;;;;;1.67;1.05;;;;;16.20;94109.00;;;;7398117;19;20152;-79
2022/06/07 07:17:03;;;;;;;3.08;1.02;;;;;16.60;94109.00;;;;7398993;19;20141;-79
2022/06/07 07:19:31;;;;;;;1.08;0.95;;;;;16.80;94112.00;;;;7396546;19;20155;-79
2022/06/07 07:22:05;;;;;;;1.88;1.10;;;;;16.70;94116.00;;;;7396353;19;20168;-77
2022/06/07 07:24:32;;;;;;;1.55;1.08;;;;;16.20;94120.00;;;;7398140;19;20173;-78
2022/06/07 07:27:00;;;;;;;1.90;0.95;;;;;16.00;94117.00;;;;7397759;19;20145;-78
2022/06/07 07:29:37;;;;;;;2.15;1.00;;;;;15.90;94122.00;;;;7395052;19;20153;-78
2022/06/07 07:32:05;;;;;;;2.15;1.23;;;;;15.70;94134.00;;;;7394649;19;20152;-78
2022/06/07 07:34:32;;;;;;;2.10;1.20;;;;;15.50;94115.00;;;;7398159;19;20143;-79
2022/06/07 07:37:07;;;;;;;2.08;1.10;;;;;16.00;94115.00;;;;7397049;19;20152;-77
2022/06/07 07:39:34;;;;;;;2.13;1.30;;;;;15.80;94120.00;;;;7395230;19;20784;-77
2022/06/07 07:42:02;;;;;;;3.15;1.20;;;;;16.10;94120.00;;;;7394633;19;20172;-76
2022/06/07 07:44:43;;;;;;;2.65;1.23;;;;;16.40;94106.00;;;;7396337;19;20189;-79
2022/06/07 07:47:11;;;;;;;1.95;1.20;;;;;16.80;94096.00;;;;7398111;19;20129;-77
2022/06/07 07:49:45;;;;;;;5.22;1.30;;;;;17.10;94099.00;;;;7395209;19;20156;-76
2022/06/07 07:52:18;;;;;;;1.20;1.10;;;;;17.10;94106.00;;;;7394466;19;20517;-77
2022/06/07 07:54:53;;;;;;;3.13;1.20;;;;;16.40;94103.00;;;;7399108;19;20294;-76
2022/06/07 07:57:20;;;;;;;3.45;1.10;;;;;16.40;94096.00;;;;7395092;19;20141;-78
2022/06/07 07:59:49;;;;;;;1.20;1.05;;;;;17.00;94086.00;;;;7391468;19;20144;-78
2022/06/07 08:02:25;;;;;;;2.85;0.93;;;;;17.40;94097.00;;;;7397869;19;20128;-77
2022/06/07 08:04:52;;;;;;;1.00;0.80;;;;;17.20;94080.00;;;;7396901;19;20147;-75
2022/06/07 08:07:20;;;;;;;3.35;1.00;;;;;17.80;94100.00;;;;7394287;19;20148;-76
2022/06/07 08:09:54;;;;;;;1.58;0.77;;;;;17.80;94075.00;;;;7394768;19;20133;-78
2022/06/07 08:12:21;;;;;;;3.03;1.00;;;;;18.60;94070.00;;;;7394777;19;20547;-77
2022/06/07 08:14:49;;;;;;;2.03;0.90;;;;;19.10;94068.00;;;;7398316;19;20608;-79
2022/06/07 08:17:23;;;;;;;1.05;0.80;;;;;19.30;94068.00;;;;7393733;19;20145;-78
2022/06/07 08:19:50;;;;;;;1.80;0.90;;;;;19.50;94070.00;;;;7394336;19;20234;-79
2022/06/07 08:22:18;;;;;;;1.70;0.82;;;;;19.00;94074.00;;;;7392945;19;20244;-76
2022/06/07 08:24:52;;;;;;;1.67;0.80;;;;;18.70;94091.00;;;;7396005;19;20623;-75
2022/06/07 08:27:20;;;;;;;3.00;1.10;;;;;18.10;94096.00;;;;7392032;19;20133;-77
2022/06/07 08:29:48;;;;;;;1.35;0.90;;;;;17.60;94078.00;;;;7395654;19;20125;-77
2022/06/07 08:32:23;;;;;;;1.52;0.93;;;;;17.90;94091.00;;;;7393532;19;20618;-76
2022/06/07 08:37:44;;;;;;;1.08;0.75;;;;;19.10;94079.00;;;;7391907;19;20612;-75
2022/06/07 08:40:20;;;;;;;1.30;0.90;;;;;19.20;94083.00;;;;7394168;19;20141;-76
2022/06/07 08:43:00;;;;;;;5.45;1.05;;;;;19.00;94079.00;;;;7395280;19;20604;-76
2022/06/07 08:45:38;;;;;;;1.17;1.00;;;;;18.30;94090.00;;;;7392839;19;20140;-75
2022/06/07 08:48:18;;;;;;;1.73;0.70;;;;;18.50;94086.00;;;;7395509;19;20121;-74
2022/06/07 08:51:07;;;;;;;1.98;0.90;;;;;18.20;94090.00;;;;7394256;19;20148;-75
2022/06/07 08:53:50;;;;;;;3.38;1.13;;;;;18.70;94087.00;;;;7394844;19;20131;-75
2022/06/07 08:56:26;;;;;;;1.25;0.88;;;;;18.40;94077.00;;;;7393096;19;20137;-76
2022/06/07 08:59:23;;;;;;;1.30;0.93;;;;;18.50;94071.00;;;;7394119;19;20482;-75
2022/06/07 09:02:26;;;;;;;1.70;0.90;;;;;18.50;94077.00;;;;7392324;19;20144;-77
2022/06/07 09:05:01;;;;;;;1.17;1.00;;;;;19.10;94058.00;;;;7394722;19;20141;-75
2022/06/07 09:07:29;;;;;;;0.98;0.85;;;;;20.10;94057.00;;;;7392784;19;20128;-77
2022/06/07 09:13:20;;;;;;;2.45;1.23;;;;;21.00;94057.00;;;;7392758;19;20220;-74
2022/06/07 09:15:54;;;;;;;2.30;0.90;;;;;20.10;94069.00;;;;7391985;19;20156;-77
2022/06/07 09:18:30;;;;;;;0.80;0.80;;;;;19.30;94071.00;;;;7393438;19;20175;-76
2022/06/07 09:21:08;;;;;;;5.55;0.90;;;;;19.10;94061.00;;;;7394268;19;20168;-75
2022/06/07 09:23:49;;;;;;;1.67;0.90;;;;;19.70;94037.00;;;;7394064;19;20132;-77
2022/06/07 09:26:33;;;;;;;2.00;0.90;;;;;20.70;94038.00;;;;7392413;19;20140;-75
2022/06/07 09:29:17;;;;;;;1.50;0.80;;;;;22.20;94027.00;;;;7393964;19;20589;-75
2022/06/07 09:31:47;;;;;;;1.20;0.88;;;;;22.50;94044.00;;;;7391910;19;20592;-74
2022/06/07 09:34:26;;;;;;;1.63;0.85;;;;;20.80;94062.00;;;;7391000;19;20145;-75
2022/06/07 09:37:06;;;;;;;2.15;0.80;;;;;19.30;94063.00;;;;7393566;19;20172;-74
2022/06/07 09:39:43;;;;;;;1.38;0.93;;;;;18.90;94061.00;;;;7392922;19;20591;-74
2022/06/07 09:42:24;;;;;;;1.45;0.93;;;;;18.40;94059.00;;;;7392938;19;20603;-76
2022/06/07 09:45:27;;;;;;;2.55;1.15;;;;;18.20;94073.00;;;;7392501;19;20642;-76
2022/06/07 09:47:56;;;;;;;2.10;1.10;;;;;18.20;94050.00;;;;7393761;19;20129;-76
2022/06/07 09:50:37;;;;;;;0.95;0.80;;;;;19.20;94044.00;;;;7392439;19;20124;-75
2022/06/07 09:53:15;;;;;;;2.85;1.05;;;;;20.30;94040.00;;;;7392667;19;20179;-78
2022/06/07 09:56:12;;;;;;;1.73;0.90;;;;;20.60;94023.00;;;;7391504;19;20145;-77
2022/06/07 09:58:48;;;;;;;1.42;1.00;;;;;22.20;94022.00;;;;7393074;19;20133;-75
2022/06/07 10:01:41;;;;;;;1.27;0.80;;;;;22.00;94037.00;;;;7390014;19;20608;-76
2022/06/07 10:04:27;;;;;;;0.70;0.70;;;;;20.80;94050.00;;;;7392269;19;20509;-76
2022/06/07 10:07:32;;;;;;;0.73;0.68;;;;;19.80;94045.00;;;;7393029;19;20219;-75
2022/06/07 10:10:19;;;;;;;0.90;0.85;;;;;20.40;94023.00;;;;7391376;19;20927;-76
2022/06/07 10:13:16;;;;;;;3.08;0.90;;;;;20.90;94010.00;;;;7391058;19;20144;-73
2022/06/07 10:16:07;;;;;;;1.48;0.90;;;;;20.70;94038.00;;;;7390758;19;20125;-75
2022/06/07 10:18:58;;;;;;;0.80;0.75;;;;;20.10;94033.00;;;;7394086;19;20125;-75
2022/06/07 10:21:31;;;;;;;0.50;0.50;;;;;19.90;94039.00;;;;7389295;19;20623;-76
2022/06/07 10:24:26;;;;;;;2.13;0.75;;;;;20.20;94007.00;;;;7389631;19;20117;-74
2022/06/07 10:27:09;;;;;;;1.30;0.77;;;;;20.40;94021.00;;;;7392132;19;20129;-74
2022/06/07 10:29:59;;;;;;;2.33;0.80;;;;;20.80;94011.00;;;;7391861;19;20469;-77
2022/06/07 10:32:57;;;;;;;1.33;0.80;;;;;21.20;94012.00;;;;7388094;19;20484;-76
2022/06/07 10:35:49;;;;;;;0.85;0.68;;;;;21.40;94022.00;;;;7389145;19;20144;-76
2022/06/07 10:38:44;;;;;;;1.85;0.77;;;;;20.50;94029.00;;;;7392618;19;20155;-75
2022/06/07 10:41:18;;;;;;;2.72;0.70;;;;;20.20;94026.00;;;;7388530;19;20128;-75
2022/06/07 10:44:39;;;;;;;1.85;0.80;;;;;20.10;94022.00;;;;7395029;19;20132;-75
2022/06/07 10:47:19;;;;;;;1.08;0.75;;;;;20.00;94027.00;;;;7401343;19;20128;-75
2022/06/07 10:49:50;;;;;;;0.60;0.60;;;;;19.80;94028.00;;;;7397232;19;20617;-75
2022/06/07 10:52:46;;;;;;;0.75;0.65;;;;;19.80;94024.00;;;;7396544;19;20553;-75
2022/06/07 10:55:42;;;;;;;0.85;0.60;;;;;19.40;94023.00;;;;7400101;19;20129;-73
2022/06/07 10:58:37;;;;;;;1.30;0.90;;;;;19.00;94036.00;;;;7394511;19;20607;-75
2022/06/07 11:01:14;;;;;;;1.58;0.90;;;;;18.70;94042.00;;;;7397568;19;20647;-73
2022/06/07 11:04:09;;;;;;;3.17;1.02;;;;;18.30;94044.00;;;;7398490;19;20651;-75
2022/06/07 11:09:44;;;;;;;1.58;0.95;;;;;18.50;94036.00;;;;7396890;19;20161;-76
2022/06/07 11:12:19;;;;;;;0.70;0.63;;;;;19.00;94011.00;;;;7395949;19;20148;-74
2022/06/07 11:15:06;;;;;;;1.00;0.93;;;;;19.50;94022.00;;;;7394145;19;20152;-77
2022/06/07 11:17:48;;;;;;;0.80;0.80;;;;;19.60;94029.00;;;;7397423;19;20133;-75
2022/06/07 11:20:28;;;;;;;1.30;0.80;;;;;19.40;94026.00;;;;7398591;19;20461;-75
2022/06/07 11:23:04;;;;;;;1.67;0.90;;;;;19.50;94020.00;;;;7399187;19;20141;-75
2022/06/07 11:26:02;;;;;;;0.80;0.80;;;;;20.40;93990.00;;;;7398764;19;20159;-75
2022/06/07 11:28:48;;;;;;;1.10;0.80;;;;;20.50;94008.00;;;;7399940;19;20605;-76
2022/06/07 11:31:28;;;;;;;1.00;0.90;;;;;20.80;93990.00;;;;7398723;19;20128;-77
2022/06/07 11:34:24;;;;;;;0.93;0.85;;;;;21.70;93971.00;;;;7394530;19;20596;-75
2022/06/07 11:37:16;;;;;;;0.80;0.65;;;;;21.30;94010.00;;;;7398023;19;20603;-75
2022/06/07 11:39:44;;;;;;;2.40;1.00;;;;;20.20;94009.00;;;;7399583;19;20139;-75
2022/06/07 11:42:19;;;;;;;2.10;0.80;;;;;20.20;94012.00;;;;7399309;19;20144;-73
2022/06/07 11:45:03;;;;;;;0.90;0.90;;;;;19.60;94008.00;;;;7396048;19;20159;-74
2022/06/07 11:47:46;;;;;;;0.88;0.80;;;;;19.70;93996.00;;;;7396275;19;20141;-74
2022/06/07 11:50:28;;;;;;;1.10;0.80;;;;;19.80;93985.00;;;;7396612;19;20165;-74
2022/06/07 11:53:20;;;;;;;0.80;0.80;;;;;21.10;93984.00;;;;7394538;19;20129;-76
2022/06/07 11:55:55;;;;;;;1.10;1.00;;;;;20.70;93990.00;;;;7395727;19;20125;-75
2022/06/07 11:58:52;;;;;;;0.88;0.88;;;;;20.20;93972.00;;;;7396906;19;20495;-74
2022/06/07 12:01:45;;;;;;;1.15;0.93;;;;;20.60;93984.00;;;;7397146;19;20592;-74
2022/06/07 12:04:36;;;;;;;4.20;0.90;;;;;20.90;93973.00;;;;7393087;19;20588;-76
2022/06/07 12:07:42;;;;;;;2.35;0.80;;;;;21.40;93970.00;;;;7396518;19;20208;-75
2022/06/07 12:10:19;;;;;;;0.85;0.73;;;;;21.50;93977.00;;;;7394659;19;21211;-74
2022/06/07 12:13:09;;;;;;;0.90;0.75;;;;;20.80;93969.00;;;;7396277;19;20212;-74
2022/06/07 12:15:51;;;;;;;0.57;0.57;;;;;21.10;93972.00;;;;7395910;19;20605;-76
2022/06/07 12:18:27;;;;;;;2.08;0.80;;;;;21.10;93968.00;;;;7396784;19;20136;-74
2022/06/07 12:21:14;;;;;;;0.70;0.70;;;;;20.80;93968.00;;;;7397438;19;20616;-75
2022/06/07 12:23:51;;;;;;;0.40;0.40;;;;;20.70;93967.00;;;;7396992;19;20141;-74
2022/06/07 12:26:28;;;;;;;0.50;0.50;;;;;20.30;93978.00;;;;7397511;19;20592;-74
2022/06/07 12:29:11;;;;;;;1.45;0.70;;;;;20.30;93981.00;;;;7395573;19;20604;-73
2022/06/07 12:31:53;;;;;;;3.47;0.80;;;;;20.00;93972.00;;;;7395024;19;20708;-75
2022/06/07 12:34:24;;;;;;;1.58;0.90;;;;;19.80;93975.00;;;;7392564;19;20261;-74
2022/06/07 12:37:24;;;;;;;1.13;0.80;;;;;20.60;93964.00;;;;7395079;19;20140;-76
2022/06/07 12:39:58;;;;;;;0.70;0.70;;;;;20.60;93947.00;;;;7395266;19;20121;-75
2022/06/07 12:42:32;;;;;;;0.50;0.50;;;;;21.10;93957.00;;;;7393818;19;20141;-74
2022/06/07 12:45:39;;;;;;;2.17;0.75;;;;;21.50;93946.00;;;;7394296;19;20799;-75
2022/06/07 12:48:18;;;;;;;0.88;0.55;;;;;21.50;93949.00;;;;7395449;19;20168;-75
2022/06/07 12:50:47;;;;;;;0.60;0.60;;;;;21.70;93945.00;;;;7396539;19;20621;-75
2022/06/07 12:53:24;;;;;;;0.50;0.50;;;;;21.40;93937.00;;;;7394829;19;20151;-75
2022/06/07 12:56:13;;;;;;;0.70;0.70;;;;;20.50;93954.00;;;;7394124;19;20135;-74
2022/06/07 12:58:52;;;;;;;1.27;0.70;;;;;20.50;93951.00;;;;7395165;19;20148;-74
2022/06/07 13:01:32;;;;;;;0.70;0.70;;;;;21.20;93945.00;;;;7393888;19;20129;-74
2022/06/07 13:04:26;;;;;;;0.57;0.57;;;;;21.30;93939.00;;;;7394459;19;20146;-75
2022/06/07 13:07:19;;;;;;;0.73;0.68;;;;;20.90;93942.00;;;;7392790;19;20121;-75
2022/06/07 13:10:19;;;;;;;0.90;0.60;;;;;21.30;93938.00;;;;7395138;19;20589;-74
2022/06/07 13:12:52;;;;;;;0.70;0.70;;;;;21.70;93936.00;;;;7395095;19;20136;-75
2022/06/07 13:15:30;;;;;;;0.85;0.80;;;;;21.40;93932.00;;;;7391268;19;20621;-75
2022/06/07 13:18:16;;;;;;;1.15;0.80;;;;;21.60;93936.00;;;;7394645;19;20168;-74
2022/06/07 13:21:12;;;;;;;1.45;0.80;;;;;22.40;93932.00;;;;7393504;19;20137;-76
2022/06/07 13:23:42;;;;;;;0.60;0.60;;;;;22.40;93929.00;;;;7393868;19;20172;-75
2022/06/07 13:26:26;;;;;;;1.38;0.88;;;;;22.60;93924.00;;;;7395081;19;20137;-75